Wedowee, Alabama
Current Conditions -  °F | °C
As of 8:53 PM on Thursday 27 Nov 2014 (Local Time) from KANB Reporting Station
Clear Clear  
Wind Chill: 39°   Ceiling: Unl
Heat Index: 39°   Visibility: 10mi
Dew Point: 26°   Wind: 0mph
Humidity: 60%   Direction: NA
Pressure: 30.42"   Gusts: NA
Location:  33.31°N, 85.48°W
Report Text: KANB 280253Z AUTO 00000KT 10SM CLR 04/M03 A3042 RMK AO2 SLP310 T00391033 53007
Loading
Personal Weather Stations






























Interactive Weather Map New forecast layout! Learn more

10-Day Weather Forecast

Advertisements
Track Severe Weather on mobile